createdAt,value
2019-06-15T00:00:53.897Z,11.37
2019-06-15T00:03:21.804Z,7.10
2019-06-15T00:05:49.679Z,8.60
2019-06-15T00:08:17.546Z,7.87
2019-06-15T00:10:45.444Z,7.97
2019-06-15T00:13:13.355Z,6.70
2019-06-15T00:15:41.191Z,11.23
2019-06-15T00:18:09.144Z,8.17
2019-06-15T00:20:36.992Z,7.87
2019-06-15T00:23:04.911Z,6.90
2019-06-15T00:25:32.823Z,8.23
2019-06-15T00:28:00.681Z,8.73
2019-06-15T00:30:28.536Z,7.47
2019-06-15T00:32:56.436Z,9.00
2019-06-15T00:35:24.337Z,8.10
2019-06-15T00:37:52.199Z,7.63
2019-06-15T00:40:20.109Z,10.10
2019-06-15T00:42:48.050Z,7.00
2019-06-15T00:45:16.010Z,8.17
2019-06-15T00:47:43.825Z,8.10
2019-06-15T00:50:11.823Z,7.73
2019-06-15T00:52:39.671Z,7.57
2019-06-15T00:55:08.960Z,7.10
2019-06-15T00:57:37.120Z,7.53
2019-06-15T01:00:06.324Z,10.70
2019-06-15T01:02:34.251Z,7.63
2019-06-15T01:05:02.255Z,6.93
2019-06-15T01:07:30.137Z,7.80
2019-06-15T01:09:57.983Z,9.90
2019-06-15T01:12:25.861Z,7.47
2019-06-15T01:14:53.784Z,10.03
2019-06-15T01:17:21.628Z,13.07
2019-06-15T01:19:49.486Z,10.13
2019-06-15T01:22:17.404Z,9.43
2019-06-15T01:24:45.284Z,11.43
2019-06-15T01:27:13.134Z,8.60
2019-06-15T01:29:41.079Z,11.00
2019-06-15T01:32:08.925Z,11.47
2019-06-15T01:34:36.815Z,9.03
2019-06-15T01:37:04.737Z,9.80
2019-06-15T01:39:32.688Z,9.70
2019-06-15T01:42:00.575Z,10.03
2019-06-15T01:44:28.461Z,10.63
2019-06-15T01:46:56.324Z,10.20
2019-06-15T01:49:24.165Z,11.00
2019-06-15T01:51:52.043Z,8.83
2019-06-15T01:54:19.894Z,13.87
2019-06-15T01:56:47.751Z,9.53
2019-06-15T01:59:15.659Z,9.43
2019-06-15T02:01:43.619Z,9.90
2019-06-15T02:04:11.488Z,13.17
2019-06-15T02:06:39.345Z,9.47
2019-06-15T02:09:08.349Z,10.70
2019-06-15T02:11:36.219Z,9.50
2019-06-15T02:14:04.404Z,10.10
2019-06-15T02:16:32.312Z,10.83
2019-06-15T02:19:00.210Z,9.70
2019-06-15T02:21:28.060Z,10.33
2019-06-15T02:23:55.956Z,10.30
2019-06-15T02:26:23.818Z,10.60
2019-06-15T02:28:51.685Z,10.93
2019-06-15T02:31:19.626Z,8.67
2019-06-15T02:33:47.497Z,8.73
2019-06-15T02:36:15.410Z,11.13
2019-06-15T02:38:43.330Z,7.80
2019-06-15T02:41:11.295Z,7.83
2019-06-15T02:43:39.159Z,9.40
2019-06-15T02:46:07.050Z,11.40
2019-06-15T02:48:34.924Z,10.80
2019-06-15T02:51:02.768Z,8.87
2019-06-15T02:53:30.753Z,10.53
2019-06-15T02:55:58.629Z,8.83
2019-06-15T02:58:26.544Z,10.23
2019-06-15T03:00:58.501Z,9.90
2019-06-15T03:03:26.369Z,9.53
2019-06-15T03:05:54.235Z,10.80
2019-06-15T03:08:22.694Z,9.17
2019-06-15T03:10:50.682Z,12.80
2019-06-15T03:13:18.601Z,10.50
2019-06-15T03:15:47.029Z,8.90
2019-06-15T03:18:14.958Z,11.70
2019-06-15T03:20:42.840Z,11.83
2019-06-15T03:23:10.697Z,9.87
2019-06-15T03:25:38.621Z,14.17
2019-06-15T03:28:06.500Z,11.60
2019-06-15T03:30:34.331Z,9.03
2019-06-15T03:33:02.270Z,8.87
2019-06-15T03:35:30.207Z,10.40
2019-06-15T03:37:58.100Z,9.80
2019-06-15T03:40:26.095Z,8.00
2019-06-15T03:42:54.029Z,9.63
2019-06-15T03:45:21.910Z,6.80
2019-06-15T03:47:49.801Z,9.00
2019-06-15T03:50:17.655Z,8.60
2019-06-15T03:52:45.579Z,8.17
2019-06-15T03:55:13.423Z,7.53
2019-06-15T03:57:41.292Z,8.67
2019-06-15T04:00:26.957Z,6.00
2019-06-15T04:02:54.873Z,9.30
2019-06-15T04:05:22.798Z,10.07
2019-06-15T04:07:50.705Z,6.07
2019-06-15T04:10:18.563Z,6.90
2019-06-15T04:12:46.399Z,9.53
2019-06-15T04:15:14.271Z,9.33
2019-06-15T04:17:42.128Z,6.20
2019-06-15T04:20:09.997Z,6.97
2019-06-15T04:22:37.946Z,9.80
2019-06-15T04:25:05.934Z,14.50
2019-06-15T04:27:33.803Z,6.33
2019-06-15T04:30:01.795Z,8.40
2019-06-15T04:32:29.938Z,8.03
2019-06-15T04:34:57.783Z,11.60
2019-06-15T04:37:25.723Z,5.77
2019-06-15T04:39:53.574Z,8.13
2019-06-15T04:42:21.446Z,5.10
2019-06-15T04:44:49.312Z,11.00
2019-06-15T04:47:17.195Z,10.13
2019-06-15T04:49:45.109Z,7.70
2019-06-15T04:52:12.946Z,8.30
2019-06-15T04:54:40.882Z,7.53
2019-06-15T04:57:08.725Z,7.53
2019-06-15T04:59:36.661Z,10.70
2019-06-15T05:02:04.675Z,8.43
2019-06-15T05:04:32.527Z,6.63
2019-06-15T05:07:00.539Z,5.83
2019-06-15T05:09:28.481Z,6.43
2019-06-15T05:11:56.376Z,6.30
2019-06-15T05:14:24.219Z,6.83
2019-06-15T05:16:52.101Z,7.03
2019-06-15T05:19:20.035Z,10.77
2019-06-15T05:21:47.950Z,11.13
2019-06-15T05:24:15.803Z,7.80
2019-06-15T05:26:43.672Z,7.43
2019-06-15T05:29:11.540Z,8.53
2019-06-15T05:31:40.261Z,9.23
2019-06-15T05:34:08.126Z,5.77
2019-06-15T05:36:35.997Z,13.97
2019-06-15T05:39:05.571Z,7.70
2019-06-15T05:41:33.449Z,10.23
2019-06-15T05:44:01.397Z,5.53
2019-06-15T05:46:29.309Z,7.30
2019-06-15T05:48:57.148Z,7.37
2019-06-15T05:51:25.037Z,7.77
2019-06-15T05:53:52.902Z,6.67
2019-06-15T05:56:20.820Z,4.77
2019-06-15T05:58:48.920Z,5.20
2019-06-15T06:01:16.763Z,5.77
2019-06-15T06:03:44.707Z,7.50
2019-06-15T06:06:12.638Z,8.07
2019-06-15T06:08:40.497Z,6.33
2019-06-15T06:11:08.421Z,5.60
2019-06-15T06:13:36.376Z,5.83
2019-06-15T06:16:04.396Z,8.43
2019-06-15T06:18:32.254Z,5.00
2019-06-15T06:21:00.093Z,4.73
2019-06-15T06:23:28.242Z,6.93
2019-06-15T06:25:56.121Z,5.83
2019-06-15T06:28:23.998Z,6.70
2019-06-15T06:30:51.994Z,9.03
2019-06-15T06:33:19.873Z,5.63
2019-06-15T06:35:47.866Z,4.83
2019-06-15T06:38:15.779Z,7.13
2019-06-15T06:40:43.729Z,7.83
2019-06-15T06:43:11.637Z,5.23
2019-06-15T06:45:39.552Z,5.17
2019-06-15T06:48:07.499Z,4.80
2019-06-15T06:50:35.412Z,9.17
2019-06-15T06:53:03.256Z,6.40
2019-06-15T06:55:31.144Z,3.93
2019-06-15T06:57:58.999Z,6.37
2019-06-15T07:00:26.887Z,4.20
2019-06-15T07:02:54.767Z,3.50
2019-06-15T07:05:22.660Z,3.40
2019-06-15T07:07:50.586Z,3.60
2019-06-15T07:10:18.483Z,4.70
2019-06-15T07:12:46.328Z,6.90
2019-06-15T07:15:14.391Z,5.50
2019-06-15T07:17:42.280Z,14.13
2019-06-15T07:20:10.131Z,10.50
2019-06-15T07:22:38.036Z,13.23
2019-06-15T07:25:05.917Z,9.37
2019-06-15T07:27:33.783Z,5.27
2019-06-15T07:30:01.726Z,3.93
2019-06-15T07:32:29.575Z,9.83
2019-06-15T07:34:57.408Z,2.77
2019-06-15T07:37:25.314Z,4.57
2019-06-15T07:39:53.183Z,2.63
2019-06-15T07:42:21.175Z,4.87
2019-06-15T07:44:49.083Z,3.50
2019-06-15T07:47:16.926Z,3.10
2019-06-15T07:49:44.894Z,3.00
2019-06-15T07:52:12.765Z,2.83
2019-06-15T07:54:40.694Z,4.50
2019-06-15T07:57:08.581Z,4.83
2019-06-15T07:59:36.551Z,5.03
2019-06-15T08:02:04.490Z,3.57
2019-06-15T08:04:32.369Z,5.13
2019-06-15T08:07:00.451Z,4.43
2019-06-15T08:09:28.383Z,3.53
2019-06-15T08:11:56.316Z,4.43
2019-06-15T08:14:24.222Z,4.80
2019-06-15T08:16:52.110Z,2.67
2019-06-15T08:19:19.968Z,3.70
2019-06-15T08:21:47.895Z,3.70
2019-06-15T08:24:15.755Z,4.90
2019-06-15T08:26:43.731Z,3.37
2019-06-15T08:29:11.627Z,2.73
2019-06-15T08:31:39.522Z,6.10
2019-06-15T08:34:07.511Z,2.37
2019-06-15T08:36:35.375Z,1.97
2019-06-15T08:39:03.469Z,3.40
2019-06-15T08:41:31.356Z,3.43
2019-06-15T08:43:59.240Z,2.27
2019-06-15T08:46:27.112Z,2.80
2019-06-15T08:48:55.035Z,2.30
2019-06-15T08:51:22.971Z,2.70
2019-06-15T08:53:50.904Z,4.17
2019-06-15T08:56:18.901Z,2.60
2019-06-15T08:58:55.131Z,2.77
2019-06-15T09:01:16.490Z,2.83
2019-06-15T09:03:44.377Z,2.27
2019-06-15T09:06:12.374Z,3.70
2019-06-15T09:08:40.306Z,3.17
2019-06-15T09:11:08.353Z,5.03
2019-06-15T09:13:36.330Z,2.70
2019-06-15T09:16:04.485Z,4.17
2019-06-15T09:18:32.663Z,4.20
2019-06-15T09:21:00.788Z,2.57
2019-06-15T09:23:28.979Z,4.50
2019-06-15T09:25:57.304Z,2.77
2019-06-15T09:28:25.498Z,2.20
2019-06-15T09:30:53.730Z,2.47
2019-06-15T09:33:21.936Z,3.23
2019-06-15T09:35:50.104Z,2.97
2019-06-15T09:38:18.391Z,2.27
2019-06-15T09:40:46.602Z,1.50
2019-06-15T09:43:14.756Z,1.80
2019-06-15T09:45:42.715Z,2.00
2019-06-15T09:48:10.752Z,3.33
2019-06-15T09:50:38.615Z,2.07
2019-06-15T09:53:06.638Z,6.17
2019-06-15T09:55:34.554Z,3.30
2019-06-15T09:58:02.465Z,2.70
2019-06-15T10:00:30.321Z,2.70
2019-06-15T10:02:58.197Z,2.40
2019-06-15T10:05:26.091Z,3.80
2019-06-15T10:07:53.943Z,2.00
2019-06-15T10:10:21.802Z,1.80
2019-06-15T10:12:49.688Z,1.50
2019-06-15T10:15:17.704Z,2.00
2019-06-15T10:17:45.683Z,2.20
2019-06-15T10:20:13.669Z,1.47
2019-06-15T10:22:41.574Z,2.70
2019-06-15T10:25:09.563Z,2.73
2019-06-15T10:27:37.430Z,2.40
2019-06-15T10:30:05.540Z,1.40
2019-06-15T10:32:33.512Z,1.73
2019-06-15T10:35:01.405Z,1.63
2019-06-15T10:37:29.371Z,1.10
2019-06-15T10:39:57.273Z,3.17
2019-06-15T10:42:25.247Z,2.60
2019-06-15T10:44:53.204Z,3.60
2019-06-15T10:47:21.077Z,1.50
2019-06-15T10:49:48.943Z,1.27
2019-06-15T10:52:16.911Z,1.40
2019-06-15T10:54:44.890Z,3.70
2019-06-15T10:57:12.786Z,1.40
2019-06-15T10:59:40.639Z,1.33
2019-06-15T11:02:08.627Z,1.10
2019-06-15T11:04:36.609Z,8.53
2019-06-15T11:07:05.336Z,2.07
2019-06-15T11:09:33.229Z,1.70
2019-06-15T11:12:01.195Z,3.73
2019-06-15T11:14:29.183Z,3.43
2019-06-15T11:16:58.755Z,2.30
2019-06-15T11:19:26.607Z,3.03
2019-06-15T11:21:54.538Z,1.30
2019-06-15T11:24:22.397Z,1.67
2019-06-15T11:26:50.266Z,2.43
2019-06-15T11:29:18.122Z,2.80
2019-06-15T11:31:46.015Z,3.70
2019-06-15T11:34:13.855Z,2.40
2019-06-15T11:36:41.736Z,1.40
2019-06-15T11:39:09.703Z,2.30
2019-06-15T11:41:37.560Z,1.67
2019-06-15T11:44:05.733Z,1.90
2019-06-15T11:46:33.684Z,3.13
2019-06-15T11:49:01.561Z,1.30
2019-06-15T11:51:29.504Z,2.23
2019-06-15T11:53:57.348Z,1.70
2019-06-15T11:56:25.215Z,1.20
2019-06-15T11:58:53.132Z,3.50
2019-06-15T12:01:21.083Z,1.93
2019-06-15T12:03:49.034Z,2.10
2019-06-15T12:06:16.931Z,2.97
2019-06-15T12:08:44.797Z,2.30
2019-06-15T12:11:12.695Z,1.70
2019-06-15T12:13:40.574Z,1.83
2019-06-15T12:16:08.457Z,1.60
2019-06-15T12:18:36.348Z,1.80
2019-06-15T12:21:04.242Z,2.30
2019-06-15T12:23:32.136Z,1.60
2019-06-15T12:26:00.030Z,1.30
2019-06-15T12:28:27.968Z,3.47
2019-06-15T12:30:55.932Z,2.23
2019-06-15T12:33:23.896Z,1.43
2019-06-15T12:35:51.734Z,2.30
2019-06-15T12:38:19.630Z,1.20
2019-06-15T12:40:47.521Z,4.60
2019-06-15T12:43:15.671Z,1.47
2019-06-15T12:45:43.565Z,1.47
2019-06-15T12:48:11.577Z,3.27
2019-06-15T12:50:39.494Z,2.00
2019-06-15T12:53:07.458Z,2.37
2019-06-15T12:55:35.356Z,2.40
2019-06-15T12:58:03.256Z,1.50
2019-06-15T13:00:34.334Z,1.20
2019-06-15T13:03:02.366Z,1.70
2019-06-15T13:05:30.292Z,1.27
2019-06-15T13:07:58.174Z,1.50
2019-06-15T13:10:26.069Z,1.27
2019-06-15T13:12:53.901Z,1.43
2019-06-15T13:15:21.811Z,3.63
2019-06-15T13:17:50.643Z,1.30
2019-06-15T13:20:18.557Z,1.20
2019-06-15T13:22:46.456Z,1.70
2019-06-15T13:25:14.355Z,1.70
2019-06-15T13:27:42.265Z,1.87
2019-06-15T13:30:12.410Z,1.57
2019-06-15T13:32:40.367Z,2.30
2019-06-15T13:35:08.276Z,1.40
2019-06-15T13:37:42.043Z,2.70
2019-06-15T13:40:05.726Z,2.60
2019-06-15T13:42:33.586Z,1.60
2019-06-15T13:45:01.622Z,1.43
2019-06-15T13:47:29.544Z,1.80
2019-06-15T13:49:57.438Z,1.83
2019-06-15T13:52:25.286Z,1.33
2019-06-15T13:54:53.195Z,1.60
2019-06-15T13:57:21.107Z,1.47
2019-06-15T13:59:48.976Z,2.20
2019-06-15T14:02:16.846Z,1.87
2019-06-15T14:04:45.347Z,1.70
2019-06-15T14:07:13.325Z,1.03
2019-06-15T14:09:41.218Z,1.70
2019-06-15T14:12:09.157Z,1.50
2019-06-15T14:14:37.031Z,1.87
2019-06-15T14:17:04.920Z,1.47
2019-06-15T14:19:32.780Z,1.90
2019-06-15T14:22:00.636Z,1.47
2019-06-15T14:24:28.502Z,1.93
2019-06-15T14:26:56.444Z,1.57
2019-06-15T14:29:24.383Z,1.60
2019-06-15T14:31:52.307Z,2.30
2019-06-15T14:34:20.203Z,1.87
2019-06-15T14:36:48.110Z,1.67
2019-06-15T14:39:15.999Z,1.77
2019-06-15T14:41:47.505Z,2.90
2019-06-15T14:44:13.498Z,2.30
2019-06-15T14:46:41.354Z,2.23
2019-06-15T14:49:09.213Z,2.90
2019-06-15T14:51:37.162Z,1.90
2019-06-15T14:54:06.651Z,2.90
2019-06-15T14:56:34.818Z,1.87
2019-06-15T14:59:02.725Z,2.10
2019-06-15T15:01:30.642Z,2.07
2019-06-15T15:03:58.626Z,2.00
2019-06-15T15:06:26.485Z,5.10
2019-06-15T15:08:56.245Z,1.97
2019-06-15T15:11:26.268Z,1.63
2019-06-15T15:13:56.095Z,1.70
2019-06-15T15:16:23.375Z,1.83
2019-06-15T15:18:51.259Z,2.50
2019-06-15T15:21:19.146Z,1.60
2019-06-15T15:23:47.040Z,1.63
2019-06-15T15:26:16.960Z,1.77
2019-06-15T15:28:47.035Z,1.47
2019-06-15T15:31:16.913Z,1.77
2019-06-15T15:33:43.760Z,2.10
2019-06-15T15:36:11.647Z,1.63
2019-06-15T15:38:39.504Z,3.20
2019-06-15T15:41:07.394Z,2.03
2019-06-15T15:43:36.950Z,2.33
2019-06-15T15:46:07.072Z,1.93
2019-06-15T15:48:36.330Z,2.03
2019-06-15T15:51:06.590Z,1.80
2019-06-15T15:53:34.133Z,1.90
2019-06-15T15:56:02.006Z,1.87
2019-06-15T15:58:29.971Z,1.70
2019-06-15T16:00:57.833Z,2.10
2019-06-15T16:03:26.443Z,1.90
2019-06-15T16:05:56.134Z,2.37
2019-06-15T16:08:25.996Z,2.70
2019-06-15T16:10:56.462Z,3.33
2019-06-15T16:13:23.517Z,2.10
2019-06-15T16:15:51.370Z,3.20
2019-06-15T16:18:19.263Z,3.37
2019-06-15T16:20:47.272Z,2.40
2019-06-15T16:23:16.086Z,5.30
2019-06-15T16:25:46.223Z,2.13
2019-06-15T16:28:13.763Z,1.60
2019-06-15T16:31:01.886Z,1.40
2019-06-15T16:33:11.210Z,2.00
2019-06-15T16:35:39.099Z,5.30
2019-06-15T16:38:07.303Z,2.40
2019-06-15T16:40:38.196Z,2.03
2019-06-15T16:43:07.098Z,2.67
2019-06-15T16:45:35.223Z,1.47
2019-06-15T16:48:03.143Z,2.63
2019-06-15T16:50:30.991Z,2.80
2019-06-15T16:52:58.855Z,3.00
2019-06-15T16:55:26.731Z,2.30
2019-06-15T16:57:56.616Z,1.87
2019-06-15T17:00:24.193Z,2.90
2019-06-15T17:02:52.049Z,2.00
2019-06-15T17:05:19.906Z,2.03
2019-06-15T17:07:47.898Z,1.93
2019-06-15T17:10:16.875Z,2.73
2019-06-15T17:12:47.368Z,1.87
2019-06-15T17:15:16.895Z,1.73
2019-06-15T17:17:46.065Z,3.47
2019-06-15T17:20:13.688Z,2.10
2019-06-15T17:22:41.574Z,2.10
2019-06-15T17:25:09.460Z,3.00
2019-06-15T17:27:37.582Z,1.93
2019-06-15T17:30:07.075Z,2.10
2019-06-15T17:32:36.946Z,2.50
2019-06-15T17:35:06.184Z,2.30
2019-06-15T17:37:36.380Z,2.13
2019-06-15T17:40:04.117Z,2.40
2019-06-15T17:42:32.008Z,2.13
2019-06-15T17:44:59.859Z,1.93
2019-06-15T17:47:27.748Z,2.83
2019-06-15T17:49:56.191Z,2.30
2019-06-15T17:52:26.263Z,3.00
2019-06-15T17:54:56.087Z,2.73
2019-06-15T17:57:23.339Z,3.27
2019-06-15T17:59:51.245Z,2.13
2019-06-15T18:02:19.149Z,2.47
2019-06-15T18:04:47.627Z,1.70
2019-06-15T18:07:16.872Z,1.83
2019-06-15T18:09:46.588Z,2.50
2019-06-15T18:12:16.297Z,2.50
2019-06-15T18:14:46.433Z,1.97
2019-06-15T18:17:13.818Z,2.47
2019-06-15T18:19:41.774Z,2.30
2019-06-15T18:22:09.626Z,2.30
2019-06-15T18:24:37.481Z,1.87
2019-06-15T18:27:07.098Z,2.60
2019-06-15T18:29:36.801Z,2.87
2019-06-15T18:32:06.407Z,3.00
2019-06-15T18:34:36.691Z,2.70
2019-06-15T18:37:03.820Z,2.33
2019-06-15T18:39:31.718Z,2.30
2019-06-15T18:41:59.605Z,2.57
2019-06-15T18:44:27.459Z,6.93
2019-06-15T18:46:56.365Z,2.77
2019-06-15T18:49:26.635Z,2.53
2019-06-15T18:51:56.579Z,2.40
2019-06-15T18:54:23.630Z,2.87
2019-06-15T18:56:51.534Z,2.50
2019-06-15T18:59:19.408Z,3.53
2019-06-15T19:01:47.244Z,2.40
2019-06-15T19:04:24.547Z,2.77
2019-06-15T19:06:46.733Z,2.63
2019-06-15T19:09:16.296Z,3.43
2019-06-15T19:11:44.007Z,2.97
2019-06-15T19:14:11.985Z,2.60
2019-06-15T19:16:39.861Z,5.13
2019-06-15T19:19:09.209Z,3.20
2019-06-15T19:21:37.270Z,3.07
2019-06-15T19:24:07.229Z,3.17
2019-06-15T19:26:37.423Z,2.77
2019-06-15T19:29:06.509Z,2.23
2019-06-15T19:31:36.587Z,3.50
2019-06-15T19:34:03.608Z,3.20
2019-06-15T19:36:31.536Z,2.80
2019-06-15T19:38:59.478Z,2.90
2019-06-15T19:41:27.330Z,3.20
2019-06-15T19:43:57.084Z,3.37
2019-06-15T19:46:26.069Z,3.70
2019-06-15T19:48:55.950Z,3.77
2019-06-15T19:51:26.461Z,3.13
2019-06-15T19:53:53.286Z,3.80
2019-06-15T19:56:21.291Z,3.40
2019-06-15T19:58:49.292Z,3.10
2019-06-15T20:01:17.140Z,2.80
2019-06-15T20:03:46.458Z,3.33
2019-06-15T20:06:16.782Z,3.17
2019-06-15T20:08:46.767Z,3.77
2019-06-15T20:11:13.847Z,3.13
2019-06-15T20:13:41.914Z,3.90
2019-06-15T20:16:09.776Z,3.67
2019-06-15T20:18:37.738Z,4.73
2019-06-15T20:21:07.344Z,4.60
2019-06-15T20:23:37.100Z,4.83
2019-06-15T20:26:06.609Z,3.90
2019-06-15T20:28:34.460Z,3.87
2019-06-15T20:31:02.427Z,5.20
2019-06-15T20:33:30.347Z,6.50
2019-06-15T20:35:58.242Z,3.20
2019-06-15T20:38:26.984Z,3.77
2019-06-15T20:40:56.511Z,4.10
2019-06-15T20:43:27.084Z,5.73
2019-06-15T20:45:56.179Z,5.57
2019-06-15T20:48:23.823Z,4.60
2019-06-15T20:50:51.696Z,4.10
2019-06-15T20:53:19.544Z,2.97
2019-06-15T20:55:47.444Z,3.57
2019-06-15T20:58:16.966Z,3.50
2019-06-15T21:00:47.432Z,3.30
2019-06-15T21:03:16.125Z,3.47
2019-06-15T21:05:44.264Z,4.03
2019-06-15T21:08:12.123Z,3.53
2019-06-15T21:10:39.986Z,3.57
2019-06-15T21:13:07.939Z,4.00
2019-06-15T21:15:37.358Z,3.70
2019-06-15T21:18:06.715Z,4.30
2019-06-15T21:20:36.371Z,3.17
2019-06-15T21:23:06.656Z,3.40
2019-06-15T21:25:34.217Z,3.37
2019-06-15T21:28:02.141Z,3.13
2019-06-15T21:30:30.033Z,4.00
2019-06-15T21:32:58.102Z,3.37
2019-06-15T21:35:26.747Z,3.23
2019-06-15T21:37:57.076Z,3.33
2019-06-15T21:40:27.085Z,4.70
2019-06-15T21:42:56.247Z,4.23
2019-06-15T21:45:23.832Z,3.70
2019-06-15T21:47:51.730Z,4.07
2019-06-15T21:50:19.778Z,3.87
2019-06-15T21:52:47.624Z,3.83
2019-06-15T21:55:16.064Z,3.37
2019-06-15T21:57:44.064Z,3.80
2019-06-15T22:00:17.475Z,4.03
2019-06-15T22:02:47.064Z,3.70
2019-06-15T22:05:16.625Z,4.30
2019-06-15T22:07:44.699Z,3.50
2019-06-15T22:10:12.807Z,3.93
2019-06-15T22:12:40.843Z,4.10
2019-06-15T22:15:09.205Z,4.30
2019-06-15T22:17:37.278Z,4.13
2019-06-15T22:20:06.227Z,4.97
2019-06-15T22:22:36.408Z,4.40
2019-06-15T22:25:06.698Z,3.53
2019-06-15T22:27:36.125Z,4.40
2019-06-15T22:30:03.820Z,3.93
2019-06-15T22:32:31.770Z,4.20
2019-06-15T22:34:59.675Z,4.90
2019-06-15T22:37:27.526Z,4.90
2019-06-15T22:39:56.214Z,5.23
2019-06-15T22:42:24.207Z,4.83
2019-06-15T22:44:52.086Z,5.47
2019-06-15T22:47:19.956Z,6.30
2019-06-15T22:49:48.301Z,6.20
2019-06-15T22:52:17.110Z,5.60
2019-06-15T22:54:46.491Z,5.33
2019-06-15T22:57:16.601Z,6.80
2019-06-15T22:59:46.116Z,5.17
2019-06-15T23:02:13.677Z,6.50
2019-06-15T23:04:41.544Z,6.50
2019-06-15T23:07:09.435Z,6.50
2019-06-15T23:09:37.378Z,6.43
2019-06-15T23:12:07.174Z,5.67
2019-06-15T23:14:37.147Z,4.93
2019-06-15T23:17:07.173Z,5.60
2019-06-15T23:19:34.097Z,5.90
2019-06-15T23:22:02.012Z,5.53
2019-06-15T23:24:29.880Z,5.77
2019-06-15T23:26:57.804Z,6.80
2019-06-15T23:29:27.132Z,8.37
2019-06-15T23:31:57.218Z,5.00
2019-06-15T23:34:26.962Z,5.40
2019-06-15T23:36:58.025Z,6.60
2019-06-15T23:39:27.054Z,4.73
2019-06-15T23:41:56.337Z,4.90
2019-06-15T23:44:26.854Z,5.53
2019-06-15T23:46:53.935Z,6.80
2019-06-15T23:49:21.876Z,9.10
2019-06-15T23:51:49.810Z,5.00
2019-06-15T23:54:17.699Z,5.30
2019-06-15T23:56:46.193Z,5.63
2019-06-15T23:59:14.375Z,4.80
